Time;durP1;ratioP1;P1;durP2;ratioP2;P2;SDS_P1;SDS_P2;PMS_P1;PMS_P2;Temp;Humidity;BMP_temperature;BMP_pressure;BME280_temperature;BME280_humidity;BME280_pressure;Samples;Min_cycle;Max_cycle;Signal;HPM_P1;HPM_P2
2023/09/16 00:02:20;;;;;;;;;;;16.60;82.60;;;;;;5022578;28;19929;-70
2023/09/16 00:04:53;;;;;;;;;;;16.60;82.60;;;;;;5024192;28;20020;-70
2023/09/16 00:07:27;;;;;;;;;;;16.60;82.60;;;;;;5023149;28;19929;-70
2023/09/16 00:10:00;;;;;;;;;;;16.50;82.70;;;;;;5020070;28;21550;-69
2023/09/16 00:12:33;;;;;;;;;;;16.50;82.60;;;;;;5020800;28;20348;-70
2023/09/16 00:15:07;;;;;;;;;;;16.50;82.60;;;;;;5022509;28;19929;-68
2023/09/16 00:17:42;;;;;;;;;;;16.50;82.60;;;;;;5018788;28;20062;-69
2023/09/16 00:20:15;;;;;;;;;;;16.50;82.60;;;;;;5020638;28;19929;-69
2023/09/16 00:22:51;;;;;;;;;;;16.50;82.60;;;;;;5023215;28;19932;-70
2023/09/16 00:25:23;;;;;;;;;;;16.50;82.60;;;;;;5021117;28;19936;-70
2023/09/16 00:27:58;;;;;;;;;;;16.50;82.50;;;;;;5020429;28;19925;-69
2023/09/16 00:30:30;;;;;;;;;;;16.40;82.60;;;;;;5022563;28;19979;-69
2023/09/16 00:33:05;;;;;;;;;;;16.40;82.60;;;;;;5019649;28;19929;-69
2023/09/16 00:35:39;;;;;;;;;;;16.40;82.70;;;;;;5027996;28;19925;-69
2023/09/16 00:38:15;;;;;;;;;;;16.40;82.50;;;;;;5024007;28;20339;-68
2023/09/16 00:40:49;;;;;;;;;;;16.30;82.50;;;;;;5025620;28;19926;-69
2023/09/16 00:43:21;;;;;;;;;;;16.30;82.60;;;;;;5022087;28;19933;-69
2023/09/16 00:45:54;;;;;;;;;;;16.30;82.40;;;;;;5025965;28;20028;-69
2023/09/16 00:48:29;;;;;;;;;;;16.30;82.40;;;;;;5007668;28;20424;-70
2023/09/16 00:51:03;;;;;;;;;;;16.40;82.20;;;;;;5027246;28;19971;-70
2023/09/16 00:53:35;;;;;;;;;;;16.30;82.20;;;;;;5014419;28;19933;-69
2023/09/16 00:56:08;;;;;;;;;;;16.30;82.10;;;;;;5023574;28;20016;-69
2023/09/16 00:58:42;;;;;;;;;;;16.30;82.10;;;;;;5024759;28;19929;-68
2023/09/16 01:01:09;;;;;;;;;;;16.30;82.20;;;;;;5024599;28;20028;-69
2023/09/16 01:03:44;;;;;;;;;;;16.30;82.20;;;;;;5027329;28;19933;-69
2023/09/16 01:06:19;;;;;;;;;;;16.20;82.40;;;;;;5025361;28;20016;-69
2023/09/16 01:08:54;;;;;;;;;;;16.20;82.40;;;;;;5026172;28;19936;-69
2023/09/16 01:11:27;;;;;;;;;;;16.10;82.50;;;;;;5024920;28;19925;-69
2023/09/16 01:14:01;;;;;;;;;;;16.20;82.30;;;;;;5025211;28;19925;-70
2023/09/16 01:16:37;;;;;;;;;;;16.20;82.30;;;;;;5012914;28;19929;-69
2023/09/16 01:19:16;;;;;;;;;;;16.20;82.30;;;;;;5026344;28;19979;-69
2023/09/16 01:21:49;;;;;;;;;;;16.20;82.20;;;;;;5006645;28;19933;-69
2023/09/16 01:24:23;;;;;;;;;;;16.20;82.30;;;;;;5026336;28;20449;-69
2023/09/16 01:26:58;;;;;;;;;;;16.20;82.30;;;;;;5031292;28;19929;-69
2023/09/16 01:29:33;;;;;;;;;;;16.10;82.30;;;;;;5033796;28;19929;-69
2023/09/16 01:32:06;;;;;;;;;;;16.10;82.30;;;;;;5026650;28;19929;-70
2023/09/16 01:34:40;;;;;;;;;;;16.10;82.30;;;;;;5026283;28;19932;-71
2023/09/16 01:37:16;;;;;;;;;;;16.10;82.40;;;;;;5025671;28;19929;-71
2023/09/16 01:39:53;;;;;;;;;;;16.00;82.60;;;;;;5019704;28;19933;-70
2023/09/16 01:42:30;;;;;;;;;;;16.10;82.30;;;;;;5021640;28;19929;-72
2023/09/16 01:45:04;;;;;;;;;;;16.00;82.50;;;;;;5021932;28;20367;-73
2023/09/16 01:47:36;;;;;;;;;;;16.00;82.30;;;;;;5023986;28;20420;-73
2023/09/16 01:50:10;;;;;;;;;;;16.00;82.20;;;;;;5025807;28;19940;-71
2023/09/16 01:52:43;;;;;;;;;;;16.00;82.20;;;;;;5023636;28;20393;-74
2023/09/16 01:55:16;;;;;;;;;;;16.00;82.20;;;;;;5022420;28;20403;-73
2023/09/16 01:57:51;;;;;;;;;;;16.00;82.10;;;;;;5023736;28;20349;-73
2023/09/16 02:00:24;;;;;;;;;;;15.90;82.30;;;;;;5023106;28;20019;-72
2023/09/16 02:02:59;;;;;;;;;;;15.90;82.20;;;;;;5024942;28;19929;-72
2023/09/16 02:05:31;;;;;;;;;;;15.80;82.50;;;;;;5009182;28;20376;-72
2023/09/16 02:08:05;;;;;;;;;;;15.80;82.40;;;;;;5024589;28;19971;-73
2023/09/16 02:10:38;;;;;;;;;;;15.80;82.50;;;;;;5025003;28;19929;-73
2023/09/16 02:13:13;;;;;;;;;;;15.80;82.50;;;;;;5028075;28;20304;-74
2023/09/16 02:15:47;;;;;;;;;;;15.80;82.50;;;;;;5020635;28;19931;-73
2023/09/16 02:18:19;;;;;;;;;;;15.80;82.50;;;;;;5022599;28;19936;-73
2023/09/16 02:20:53;;;;;;;;;;;15.70;82.60;;;;;;5021764;28;19925;-73
2023/09/16 02:23:26;;;;;;;;;;;15.80;82.40;;;;;;5023648;28;20388;-73
2023/09/16 02:26:00;;;;;;;;;;;15.70;82.40;;;;;;5023745;28;20016;-73
2023/09/16 02:28:35;;;;;;;;;;;15.80;82.30;;;;;;5023794;28;19932;-72
2023/09/16 02:31:10;;;;;;;;;;;15.80;82.30;;;;;;5023458;28;19925;-73
2023/09/16 02:33:42;;;;;;;;;;;15.70;82.40;;;;;;5022979;28;19925;-72
2023/09/16 02:36:17;;;;;;;;;;;15.70;82.50;;;;;;5023243;28;19948;-71
2023/09/16 02:38:51;;;;;;;;;;;15.80;82.40;;;;;;5022888;28;19929;-73
2023/09/16 02:41:25;;;;;;;;;;;15.70;82.20;;;;;;5021388;28;19940;-73
2023/09/16 02:44:01;;;;;;;;;;;15.70;82.30;;;;;;5011672;28;20364;-72
2023/09/16 02:46:34;;;;;;;;;;;15.60;82.50;;;;;;5023460;28;20077;-73
2023/09/16 02:49:02;;;;;;;;;;;15.60;82.60;;;;;;5024840;28;19933;-72
2023/09/16 02:51:36;;;;;;;;;;;15.60;82.50;;;;;;5021756;28;19936;-71
2023/09/16 02:54:08;;;;;;;;;;;15.60;82.60;;;;;;5009170;28;19934;-72
2023/09/16 02:56:42;;;;;;;;;;;15.60;82.70;;;;;;5022088;28;19929;-72
2023/09/16 02:59:16;;;;;;;;;;;15.50;82.90;;;;;;5019873;28;19943;-74
2023/09/16 03:01:56;;;;;;;;;;;15.60;82.80;;;;;;5025522;28;19925;-73
2023/09/16 03:04:29;;;;;;;;;;;15.60;82.60;;;;;;5021101;28;19937;-72
2023/09/16 03:07:03;;;;;;;;;;;15.60;82.70;;;;;;5022823;28;19929;-71
2023/09/16 03:09:36;;;;;;;;;;;15.60;82.60;;;;;;5001948;28;19960;-72
2023/09/16 03:12:11;;;;;;;;;;;15.60;82.60;;;;;;5022851;28;19929;-72
2023/09/16 03:14:40;;;;;;;;;;;15.50;82.60;;;;;;5007737;28;19929;-72
2023/09/16 03:17:13;;;;;;;;;;;15.50;82.60;;;;;;5022545;28;20012;-71
2023/09/16 03:19:46;;;;;;;;;;;15.50;82.60;;;;;;5019664;28;19933;-73
2023/09/16 03:22:19;;;;;;;;;;;15.50;82.60;;;;;;5019338;28;19944;-73
2023/09/16 03:24:53;;;;;;;;;;;15.50;82.60;;;;;;5007691;28;19932;-73
2023/09/16 03:27:26;;;;;;;;;;;15.60;82.50;;;;;;5010271;28;19925;-74
2023/09/16 03:30:01;;;;;;;;;;;15.50;82.50;;;;;;5022219;28;19926;-75
2023/09/16 03:32:38;;;;;;;;;;;15.50;82.50;;;;;;5022652;28;19933;-72
2023/09/16 03:35:12;;;;;;;;;;;15.50;82.60;;;;;;5020399;28;20020;-72
2023/09/16 03:37:45;;;;;;;;;;;15.60;82.50;;;;;;5022301;28;19929;-72
2023/09/16 03:40:19;;;;;;;;;;;15.50;82.40;;;;;;5021279;28;19988;-73
2023/09/16 03:42:45;;;;;;;;;;;15.50;82.40;;;;;;5026356;28;19937;-72
2023/09/16 03:45:20;;;;;;;;;;;15.40;82.60;;;;;;5020775;28;19930;-72
2023/09/16 03:47:54;;;;;;;;;;;15.40;82.60;;;;;;5022905;28;19987;-73
2023/09/16 03:50:27;;;;;;;;;;;15.30;82.70;;;;;;5021180;28;21042;-71
2023/09/16 03:53:01;;;;;;;;;;;15.30;82.70;;;;;;5022381;28;20327;-72
2023/09/16 03:55:35;;;;;;;;;;;15.30;82.80;;;;;;5018370;28;19971;-73
2023/09/16 03:58:08;;;;;;;;;;;15.30;82.80;;;;;;5022208;28;20008;-73
2023/09/16 04:00:42;;;;;;;;;;;15.40;82.70;;;;;;5025144;28;19979;-73
2023/09/16 04:03:16;;;;;;;;;;;15.30;82.60;;;;;;5029954;28;19929;-73
2023/09/16 04:05:54;;;;;;;;;;;15.30;82.60;;;;;;5029390;28;19984;-73
2023/09/16 04:08:28;;;;;;;;;;;15.30;82.60;;;;;;5025160;28;19929;-73
2023/09/16 04:11:00;;;;;;;;;;;15.30;82.60;;;;;;5030150;28;20351;-73
2023/09/16 04:13:33;;;;;;;;;;;15.30;82.70;;;;;;5027513;28;20380;-72
2023/09/16 04:16:08;;;;;;;;;;;15.20;82.70;;;;;;5025631;28;20023;-73
2023/09/16 04:18:41;;;;;;;;;;;15.20;82.70;;;;;;5024102;28;19933;-73
2023/09/16 04:21:14;;;;;;;;;;;15.20;82.70;;;;;;5024708;28;19929;-72
2023/09/16 04:23:48;;;;;;;;;;;15.20;82.90;;;;;;5027005;28;19929;-73
2023/09/16 04:26:21;;;;;;;;;;;15.20;82.80;;;;;;5029476;28;19936;-73
2023/09/16 04:28:54;;;;;;;;;;;15.10;82.90;;;;;;5024813;28;19933;-73
2023/09/16 04:31:29;;;;;;;;;;;15.10;82.90;;;;;;5025024;28;20261;-73
2023/09/16 04:34:04;;;;;;;;;;;15.10;83.00;;;;;;5022571;28;19933;-72
2023/09/16 04:36:39;;;;;;;;;;;15.10;83.10;;;;;;5007120;28;20292;-74
2023/09/16 04:39:12;;;;;;;;;;;15.10;83.10;;;;;;5028443;28;19925;-72
2023/09/16 04:41:38;;;;;;;;;;;15.10;83.00;;;;;;5022115;28;19929;-72
2023/09/16 04:44:12;;;;;;;;;;;15.10;83.00;;;;;;5027433;28;19925;-71
2023/09/16 04:46:47;;;;;;;;;;;15.10;83.10;;;;;;5007538;28;19929;-73
2023/09/16 04:49:24;;;;;;;;;;;15.10;83.00;;;;;;5013016;28;20007;-73
2023/09/16 04:52:05;;;;;;;;;;;15.10;82.90;;;;;;5029501;28;19936;-73
2023/09/16 04:54:38;;;;;;;;;;;15.10;82.80;;;;;;5025546;28;19931;-72
2023/09/16 04:57:13;;;;;;;;;;;15.10;82.90;;;;;;5024657;28;19932;-72
2023/09/16 04:59:47;;;;;;;;;;;15.10;82.80;;;;;;5013401;28;19929;-74
2023/09/16 05:02:21;;;;;;;;;;;15.10;83.00;;;;;;5026508;28;19979;-72
2023/09/16 05:04:55;;;;;;;;;;;15.00;83.00;;;;;;5011476;28;20373;-73
2023/09/16 05:07:28;;;;;;;;;;;15.10;83.20;;;;;;5024723;28;19941;-73
2023/09/16 05:10:02;;;;;;;;;;;15.10;83.00;;;;;;5030341;28;20403;-73
2023/09/16 05:12:35;;;;;;;;;;;15.10;83.10;;;;;;5008478;28;20003;-65
2023/09/16 05:15:10;;;;;;;;;;;15.00;83.40;;;;;;5021640;28;19925;-65
2023/09/16 05:17:45;;;;;;;;;;;15.00;83.70;;;;;;5018498;28;19932;-64
2023/09/16 05:20:19;;;;;;;;;;;15.10;83.20;;;;;;5026168;28;20381;-65
2023/09/16 05:22:52;;;;;;;;;;;15.10;83.30;;;;;;5009260;28;20020;-65
2023/09/16 05:25:27;;;;;;;;;;;15.00;83.30;;;;;;5011878;28;19929;-65
2023/09/16 05:28:00;;;;;;;;;;;14.90;83.30;;;;;;5023614;28;19979;-65
2023/09/16 05:30:33;;;;;;;;;;;15.00;83.40;;;;;;5006938;28;20055;-65
2023/09/16 05:33:09;;;;;;;;;;;14.90;83.30;;;;;;5020881;28;19929;-66
2023/09/16 05:35:43;;;;;;;;;;;14.90;83.50;;;;;;5029299;28;20434;-66
2023/09/16 05:38:09;;;;;;;;;;;14.90;83.40;;;;;;5022597;28;20032;-65
2023/09/16 05:40:43;;;;;;;;;;;14.90;83.30;;;;;;5023567;28;19933;-64
2023/09/16 05:43:18;;;;;;;;;;;14.90;83.40;;;;;;5022850;28;19929;-67
2023/09/16 05:45:51;;;;;;;;;;;14.90;83.30;;;;;;5011950;28;19925;-65
2023/09/16 05:48:26;;;;;;;;;;;14.90;83.30;;;;;;5023461;28;20003;-66
2023/09/16 05:51:02;;;;;;;;;;;14.90;83.50;;;;;;5021690;28;19929;-66
2023/09/16 05:53:36;;;;;;;;;;;14.80;83.80;;;;;;5012580;28;19925;-67
2023/09/16 05:56:09;;;;;;;;;;;14.90;83.60;;;;;;5024883;28;19926;-66
2023/09/16 05:58:46;;;;;;;;;;;14.90;83.40;;;;;;5011775;28;19999;-66
2023/09/16 06:01:21;;;;;;;;;;;15.00;83.50;;;;;;5022831;28;19925;-66
2023/09/16 06:03:56;;;;;;;;;;;15.00;83.30;;;;;;5023776;28;20419;-64
2023/09/16 06:06:30;;;;;;;;;;;15.00;83.50;;;;;;5021921;28;20022;-65
2023/09/16 06:09:04;;;;;;;;;;;15.00;83.80;;;;;;5021958;28;19979;-65
2023/09/16 06:11:37;;;;;;;;;;;14.90;84.00;;;;;;5024702;28;20015;-66
2023/09/16 06:14:05;;;;;;;;;;;15.00;84.10;;;;;;5027092;28;19932;-65
2023/09/16 06:16:39;;;;;;;;;;;15.00;84.20;;;;;;5005926;28;20377;-65
2023/09/16 06:19:14;;;;;;;;;;;15.00;84.10;;;;;;5024508;28;20377;-65
2023/09/16 06:21:41;;;;;;;;;;;15.10;84.00;;;;;;5021934;28;19929;-70
2023/09/16 06:24:14;;;;;;;;;;;15.20;83.70;;;;;;5023224;28;19983;-70
2023/09/16 06:26:47;;;;;;;;;;;15.20;83.40;;;;;;5023593;28;19929;-70
2023/09/16 06:29:21;;;;;;;;;;;15.30;83.70;;;;;;5021729;28;20450;-70
2023/09/16 06:31:54;;;;;;;;;;;15.30;83.80;;;;;;5022004;28;19925;-71
2023/09/16 06:34:28;;;;;;;;;;;15.30;84.20;;;;;;5025762;28;19950;-70
2023/09/16 06:37:02;;;;;;;;;;;15.40;83.60;;;;;;5013484;28;19929;-70
2023/09/16 06:39:36;;;;;;;;;;;15.60;83.40;;;;;;5015798;28;20647;-71
2023/09/16 06:42:10;;;;;;;;;;;15.70;83.10;;;;;;5026876;28;20008;-69
2023/09/16 06:44:43;;;;;;;;;;;15.60;82.80;;;;;;5026177;28;19953;-70
2023/09/16 06:47:16;;;;;;;;;;;15.70;83.40;;;;;;5026108;28;20570;-69
2023/09/16 06:49:50;;;;;;;;;;;15.70;83.30;;;;;;5025965;28;20011;-69
2023/09/16 06:52:23;;;;;;;;;;;15.90;83.70;;;;;;5026267;28;19932;-70
2023/09/16 06:54:56;;;;;;;;;;;15.90;83.40;;;;;;5026175;28;19991;-70
2023/09/16 06:57:29;;;;;;;;;;;16.00;83.40;;;;;;5025511;28;19930;-70
2023/09/16 07:00:02;;;;;;;;;;;16.10;83.00;;;;;;5020736;28;19929;-70
2023/09/16 07:02:35;;;;;;;;;;;16.00;83.40;;;;;;5021668;28;19936;-69
2023/09/16 07:05:10;;;;;;;;;;;16.10;83.30;;;;;;5021670;28;20012;-69
2023/09/16 07:07:42;;;;;;;;;;;16.20;83.10;;;;;;5023570;28;19932;-70
2023/09/16 07:10:09;;;;;;;;;;;16.30;82.90;;;;;;5025357;28;20343;-70
2023/09/16 07:12:43;;;;;;;;;;;16.40;82.80;;;;;;5023503;28;20451;-69
2023/09/16 07:15:19;;;;;;;;;;;16.40;83.20;;;;;;5023231;28;19933;-70
2023/09/16 07:17:52;;;;;;;;;;;16.40;83.00;;;;;;5022692;28;20003;-70
2023/09/16 07:20:26;;;;;;;;;;;16.60;83.00;;;;;;5019924;28;19929;-70
2023/09/16 07:22:55;;;;;;;;;;;16.50;83.20;;;;;;5023058;28;19929;-70
2023/09/16 07:25:29;;;;;;;;;;;16.70;83.00;;;;;;5022673;28;20043;-70
2023/09/16 07:28:03;;;;;;;;;;;16.80;82.60;;;;;;5024494;28;19935;-70
2023/09/16 07:30:36;;;;;;;;;;;16.90;82.20;;;;;;5022188;28;19975;-70
2023/09/16 07:33:10;;;;;;;;;;;17.10;82.50;;;;;;5023248;28;20011;-70
2023/09/16 07:35:44;;;;;;;;;;;17.20;82.20;;;;;;5022528;28;19925;-71
2023/09/16 07:38:18;;;;;;;;;;;17.40;82.20;;;;;;5022507;28;19936;-71
2023/09/16 07:40:51;;;;;;;;;;;17.60;81.50;;;;;;5024221;28;19926;-71
2023/09/16 07:43:25;;;;;;;;;;;17.80;80.80;;;;;;4999844;28;21921;-71
2023/09/16 07:45:59;;;;;;;;;;;18.00;80.40;;;;;;5025768;28;20037;-71
2023/09/16 07:48:32;;;;;;;;;;;18.10;80.10;;;;;;5026247;28;19925;-71
2023/09/16 07:51:07;;;;;;;;;;;18.30;79.50;;;;;;5026194;28;19932;-70
2023/09/16 07:53:41;;;;;;;;;;;18.40;79.50;;;;;;5027583;28;19929;-71
2023/09/16 07:56:16;;;;;;;;;;;18.60;79.10;;;;;;5025136;28;19948;-71
2023/09/16 07:58:49;;;;;;;;;;;18.60;78.80;;;;;;5026965;28;19939;-72
2023/09/16 08:01:15;;;;;;;;;;;18.80;78.70;;;;;;5026506;28;19925;-71
2023/09/16 08:03:49;;;;;;;;;;;18.90;77.70;;;;;;5025109;28;19925;-71
2023/09/16 08:06:23;;;;;;;;;;;19.10;77.00;;;;;;5025874;28;19929;-71
2023/09/16 08:08:58;;;;;;;;;;;19.10;77.10;;;;;;5025385;28;20448;-70
2023/09/16 08:11:32;;;;;;;;;;;19.30;76.30;;;;;;5026809;28;19972;-71
2023/09/16 08:14:06;;;;;;;;;;;19.40;76.40;;;;;;5026634;28;19936;-71
2023/09/16 08:16:40;;;;;;;;;;;19.60;75.50;;;;;;5025785;28;19933;-71
2023/09/16 08:19:13;;;;;;;;;;;19.60;75.90;;;;;;5025861;28;19968;-71
2023/09/16 08:21:47;;;;;;;;;;;19.80;75.40;;;;;;5018627;28;20007;-70
2023/09/16 08:24:14;;;;;;;;;;;19.90;75.50;;;;;;5025899;28;19937;-70
2023/09/16 08:26:47;;;;;;;;;;;20.10;74.90;;;;;;5024858;28;19929;-70
2023/09/16 08:29:20;;;;;;;;;;;20.20;74.10;;;;;;5026023;28;19929;-70
2023/09/16 08:31:53;;;;;;;;;;;20.30;74.00;;;;;;5026254;28;20020;-70
2023/09/16 08:34:26;;;;;;;;;;;20.40;73.80;;;;;;5026805;28;19972;-72
2023/09/16 08:37:00;;;;;;;;;;;20.50;73.50;;;;;;5024681;28;20440;-71
2023/09/16 08:39:34;;;;;;;;;;;20.60;73.30;;;;;;5025294;28;19979;-71
2023/09/16 08:42:09;;;;;;;;;;;20.70;73.20;;;;;;5026108;28;19925;-70
2023/09/16 08:44:44;;;;;;;;;;;20.80;72.40;;;;;;5024653;28;20339;-71
2023/09/16 08:47:26;;;;;;;;;;;20.90;72.10;;;;;;5024753;28;22474;-70
2023/09/16 08:50:04;;;;;;;;;;;21.10;71.70;;;;;;5025305;28;19939;-70
2023/09/16 08:52:45;;;;;;;;;;;21.10;71.40;;;;;;5023837;28;19925;-71
2023/09/16 08:55:19;;;;;;;;;;;21.30;71.10;;;;;;5024962;28;20403;-71
2023/09/16 08:57:53;;;;;;;;;;;21.30;70.60;;;;;;5024742;28;19925;-71
2023/09/16 09:00:27;;;;;;;;;;;21.40;69.90;;;;;;5025149;28;19936;-72
2023/09/16 09:02:54;;;;;;;;;;;21.50;69.90;;;;;;5026023;28;19929;-71
2023/09/16 09:05:28;;;;;;;;;;;21.60;69.60;;;;;;5025617;28;19975;-70
2023/09/16 09:08:02;;;;;;;;;;;21.70;69.00;;;;;;5024918;28;19925;-72
2023/09/16 09:10:36;;;;;;;;;;;21.80;69.30;;;;;;5024341;28;20355;-72
2023/09/16 09:13:11;;;;;;;;;;;21.90;68.90;;;;;;5024512;28;19933;-73
2023/09/16 09:15:56;;;;;;;;;;;22.00;69.00;;;;;;5029530;28;19925;-72
2023/09/16 09:18:32;;;;;;;;;;;22.10;68.60;;;;;;5028356;28;20388;-72
2023/09/16 09:20:58;;;;;;;;;;;22.10;68.40;;;;;;5027682;28;19925;-72
2023/09/16 09:23:33;;;;;;;;;;;22.20;68.10;;;;;;5024830;28;20001;-71
2023/09/16 09:26:06;;;;;;;;;;;22.40;68.00;;;;;;5022063;28;20422;-70
2023/09/16 09:28:39;;;;;;;;;;;22.50;67.70;;;;;;5024735;28;19944;-71
2023/09/16 09:31:12;;;;;;;;;;;22.50;67.90;;;;;;5025150;28;20024;-69
2023/09/16 09:33:48;;;;;;;;;;;22.60;67.50;;;;;;5025338;28;19935;-71
2023/09/16 09:36:21;;;;;;;;;;;22.70;67.00;;;;;;5025205;28;20564;-71
2023/09/16 09:38:57;;;;;;;;;;;22.80;67.20;;;;;;5025410;28;19925;-69
2023/09/16 09:41:41;;;;;;;;;;;22.90;66.60;;;;;;5022104;28;19933;-69
2023/09/16 09:44:15;;;;;;;;;;;22.90;66.30;;;;;;5024747;28;19929;-71
2023/09/16 09:46:48;;;;;;;;;;;23.00;66.50;;;;;;5024042;28;19929;-70
2023/09/16 09:49:15;;;;;;;;;;;23.10;66.60;;;;;;5028830;28;19925;-71
2023/09/16 09:51:49;;;;;;;;;;;23.10;66.10;;;;;;5040245;28;19929;-72
2023/09/16 09:54:24;;;;;;;;;;;23.30;65.80;;;;;;5030266;28;19925;-70
2023/09/16 09:56:58;;;;;;;;;;;23.30;65.40;;;;;;5029494;28;20435;-71
2023/09/16 09:59:31;;;;;;;;;;;23.30;65.60;;;;;;5029093;28;19960;-70
2023/09/16 10:02:04;;;;;;;;;;;23.40;65.60;;;;;;5028358;28;19929;-71
2023/09/16 10:04:38;;;;;;;;;;;23.50;65.30;;;;;;5026873;28;19933;-71
2023/09/16 10:07:11;;;;;;;;;;;23.60;65.40;;;;;;5027889;28;20012;-70
2023/09/16 10:09:45;;;;;;;;;;;23.60;65.60;;;;;;5009786;28;20437;-69
2023/09/16 10:12:19;;;;;;;;;;;23.70;65.80;;;;;;5027699;28;19925;-69
2023/09/16 10:14:46;;;;;;;;;;;23.80;65.20;;;;;;5028818;28;19935;-70
2023/09/16 10:17:19;;;;;;;;;;;23.80;65.00;;;;;;5027728;28;19933;-75
2023/09/16 10:19:52;;;;;;;;;;;23.90;65.50;;;;;;5024990;28;19971;-74
2023/09/16 10:22:25;;;;;;;;;;;24.00;64.50;;;;;;5023234;28;19932;-71
2023/09/16 10:24:59;;;;;;;;;;;24.10;64.80;;;;;;5023919;28;19991;-74
2023/09/16 10:27:37;;;;;;;;;;;24.20;64.30;;;;;;5023899;28;20674;-70
2023/09/16 10:30:14;;;;;;;;;;;24.20;64.60;;;;;;5025545;28;19933;-70
2023/09/16 10:32:47;;;;;;;;;;;24.20;64.70;;;;;;5025366;28;19948;-77
2023/09/16 10:35:20;;;;;;;;;;;24.30;64.70;;;;;;5024376;28;19971;-78
2023/09/16 10:37:54;;;;;;;;;;;24.20;64.50;;;;;;5025075;28;19997;-76
2023/09/16 10:40:30;;;;;;;;;;;24.20;64.60;;;;;;5022750;28;19929;-77
2023/09/16 10:43:04;;;;;;;;;;;24.30;64.10;;;;;;5023097;28;20432;-76
2023/09/16 10:45:38;;;;;;;;;;;24.30;64.10;;;;;;5023864;28;19929;-79
2023/09/16 10:48:11;;;;;;;;;;;24.50;64.40;;;;;;5022520;28;19933;-78
2023/09/16 10:50:38;;;;;;;;;;;24.60;64.30;;;;;;5021418;28;20024;-78
2023/09/16 10:53:16;;;;;;;;;;;24.50;64.00;;;;;;5021808;28;19936;-78
2023/09/16 10:55:53;;;;;;;;;;;24.60;64.10;;;;;;5025260;28;19929;-79
2023/09/16 10:58:30;;;;;;;;;;;24.60;63.80;;;;;;5023048;28;19937;-79
2023/09/16 11:01:07;;;;;;;;;;;24.60;64.00;;;;;;5025411;28;19925;-77
2023/09/16 11:03:43;;;;;;;;;;;24.50;64.10;;;;;;5024562;28;20588;-76
2023/09/16 11:06:17;;;;;;;;;;;24.40;63.60;;;;;;5020903;28;19960;-75
2023/09/16 11:08:50;;;;;;;;;;;24.50;63.80;;;;;;5024537;28;19937;-79
2023/09/16 11:11:31;;;;;;;;;;;24.40;63.80;;;;;;5022386;28;19967;-78
2023/09/16 11:14:05;;;;;;;;;;;24.50;64.00;;;;;;5023254;28;19928;-78
2023/09/16 11:16:44;;;;;;;;;;;24.50;63.80;;;;;;5024104;28;19979;-77
2023/09/16 11:19:20;;;;;;;;;;;24.60;64.00;;;;;;5023618;28;19956;-78
2023/09/16 11:21:53;;;;;;;;;;;24.80;63.90;;;;;;5024125;28;20373;-77
2023/09/16 11:24:27;;;;;;;;;;;24.80;63.40;;;;;;5026008;28;19925;-78
2023/09/16 11:27:02;;;;;;;;;;;24.70;63.90;;;;;;5024704;28;19929;-79
2023/09/16 11:29:37;;;;;;;;;;;24.60;63.60;;;;;;5025085;28;20012;-78
2023/09/16 11:32:11;;;;;;;;;;;24.60;63.60;;;;;;5026010;28;20017;-77
2023/09/16 11:34:46;;;;;;;;;;;24.70;64.00;;;;;;5024403;28;19929;-78
2023/09/16 11:37:24;;;;;;;;;;;24.80;63.70;;;;;;5025046;28;19935;-77
2023/09/16 11:40:00;;;;;;;;;;;24.90;63.60;;;;;;5023116;28;20331;-78
2023/09/16 11:42:34;;;;;;;;;;;24.80;64.00;;;;;;5014123;28;19936;-71
2023/09/16 11:45:09;;;;;;;;;;;24.80;63.90;;;;;;5020650;28;20520;-72
2023/09/16 11:47:42;;;;;;;;;;;24.80;63.90;;;;;;5021670;28;19940;-72
2023/09/16 11:50:20;;;;;;;;;;;24.80;63.60;;;;;;5020524;28;19960;-72
2023/09/16 11:52:54;;;;;;;;;;;24.80;64.10;;;;;;5023833;28;19925;-71
2023/09/16 11:55:27;;;;;;;;;;;24.80;64.00;;;;;;5023204;28;19925;-71
2023/09/16 11:58:03;;;;;;;;;;;24.80;64.80;;;;;;5023351;28;20056;-72
2023/09/16 12:00:36;;;;;;;;;;;24.80;64.20;;;;;;5023993;28;19960;-72
2023/09/16 12:03:11;;;;;;;;;;;24.90;64.40;;;;;;5022126;28;19929;-71
2023/09/16 12:05:45;;;;;;;;;;;24.80;64.90;;;;;;5022702;28;19929;-71
2023/09/16 12:08:18;;;;;;;;;;;24.70;64.90;;;;;;5023110;28;20332;-72
2023/09/16 12:10:52;;;;;;;;;;;24.60;64.90;;;;;;5022222;28;19933;-72
2023/09/16 12:13:28;;;;;;;;;;;24.70;64.30;;;;;;5023435;28;19951;-72
2023/09/16 12:16:02;;;;;;;;;;;24.70;64.90;;;;;;5023924;28;20027;-72
2023/09/16 12:18:36;;;;;;;;;;;24.80;64.90;;;;;;5022139;28;19975;-72
2023/09/16 12:21:10;;;;;;;;;;;24.90;64.50;;;;;;5022643;28;20868;-71
2023/09/16 12:23:45;;;;;;;;;;;24.90;64.70;;;;;;5023109;28;19925;-71
2023/09/16 12:26:18;;;;;;;;;;;24.80;64.40;;;;;;5021764;28;19956;-71
2023/09/16 12:28:53;;;;;;;;;;;24.60;64.60;;;;;;5022683;28;19933;-71
2023/09/16 12:31:27;;;;;;;;;;;24.60;65.10;;;;;;5027664;28;19939;-72
2023/09/16 12:34:00;;;;;;;;;;;24.50;64.90;;;;;;5026163;28;19925;-72
2023/09/16 12:36:33;;;;;;;;;;;24.50;65.20;;;;;;5024147;28;20017;-72
2023/09/16 12:39:06;;;;;;;;;;;24.60;65.00;;;;;;5024755;28;19932;-73
2023/09/16 12:41:43;;;;;;;;;;;24.60;65.00;;;;;;5024302;28;19932;-73
2023/09/16 12:44:18;;;;;;;;;;;24.80;65.10;;;;;;5024632;28;19952;-72
2023/09/16 12:46:51;;;;;;;;;;;24.90;65.30;;;;;;5026734;28;20288;-72
2023/09/16 12:49:25;;;;;;;;;;;24.90;65.20;;;;;;5024745;28;20004;-72
2023/09/16 12:51:59;;;;;;;;;;;24.70;64.90;;;;;;5024567;28;20368;-70
2023/09/16 12:54:32;;;;;;;;;;;24.70;64.90;;;;;;5023858;28;19933;-70
2023/09/16 12:57:07;;;;;;;;;;;24.60;64.90;;;;;;5025451;28;19925;-71
2023/09/16 12:59:45;;;;;;;;;;;24.60;65.80;;;;;;5024359;28;19933;-72
2023/09/16 13:02:21;;;;;;;;;;;24.60;64.90;;;;;;5023593;28;20016;-71
2023/09/16 13:05:09;;;;;;;;;;;24.60;65.90;;;;;;5025231;28;20030;-71
2023/09/16 13:07:42;;;;;;;;;;;24.50;65.00;;;;;;5024288;28;20364;-71
2023/09/16 13:10:15;;;;;;;;;;;24.60;65.10;;;;;;5021621;28;19932;-70
2023/09/16 13:12:48;;;;;;;;;;;24.40;65.40;;;;;;5025482;28;20010;-70
2023/09/16 13:15:24;;;;;;;;;;;24.30;65.40;;;;;;5024666;28;20424;-70
2023/09/16 13:17:59;;;;;;;;;;;24.30;65.40;;;;;;5024076;28;19925;-71
2023/09/16 13:20:36;;;;;;;;;;;24.30;65.90;;;;;;5024282;28;19925;-71
2023/09/16 13:23:17;;;;;;;;;;;24.30;65.80;;;;;;5024387;28;19931;-71
2023/09/16 13:25:50;;;;;;;;;;;24.30;65.90;;;;;;5023759;28;19936;-71
2023/09/16 13:28:24;;;;;;;;;;;24.30;65.80;;;;;;5023039;28;20564;-71
2023/09/16 13:30:59;;;;;;;;;;;24.30;65.70;;;;;;5023791;28;20023;-71
2023/09/16 13:33:45;;;;;;;;;;;24.20;65.70;;;;;;5026220;28;19937;-71
2023/09/16 13:36:24;;;;;;;;;;;24.10;65.90;;;;;;5022904;28;19925;-71
2023/09/16 13:39:00;;;;;;;;;;;24.10;66.00;;;;;;5025047;28;19926;-71
2023/09/16 13:41:33;;;;;;;;;;;24.10;66.30;;;;;;5022414;28;19929;-71
2023/09/16 13:44:06;;;;;;;;;;;24.10;66.30;;;;;;5020404;28;20010;-70
2023/09/16 13:46:41;;;;;;;;;;;24.10;66.60;;;;;;5024531;28;20005;-71
2023/09/16 13:49:14;;;;;;;;;;;24.10;66.20;;;;;;5023388;28;20377;-70
2023/09/16 13:51:47;;;;;;;;;;;24.00;66.30;;;;;;5023986;28;20444;-71
2023/09/16 13:54:20;;;;;;;;;;;24.00;66.60;;;;;;5023988;28;20292;-71
2023/09/16 13:56:53;;;;;;;;;;;24.00;66.70;;;;;;5024141;28;19936;-71
2023/09/16 13:59:26;;;;;;;;;;;24.00;66.70;;;;;;5024123;28;19929;-71
2023/09/16 14:02:00;;;;;;;;;;;24.00;66.70;;;;;;5023764;28;19936;-70
2023/09/16 14:04:34;;;;;;;;;;;24.10;67.10;;;;;;5022636;28;19952;-71
2023/09/16 14:07:14;;;;;;;;;;;24.10;66.60;;;;;;5014174;28;19925;-74
2023/09/16 14:09:51;;;;;;;;;;;24.10;66.50;;;;;;5022895;28;20396;-72
2023/09/16 14:12:24;;;;;;;;;;;24.10;67.10;;;;;;5022921;28;20316;-72
2023/09/16 14:14:57;;;;;;;;;;;24.10;67.00;;;;;;5023720;28;19971;-71
2023/09/16 14:17:32;;;;;;;;;;;24.10;67.00;;;;;;5022913;28;19960;-71
2023/09/16 14:20:07;;;;;;;;;;;24.10;67.00;;;;;;5022379;28;20396;-70
2023/09/16 14:22:33;;;;;;;;;;;24.10;67.30;;;;;;5023733;28;19925;-70
2023/09/16 14:25:07;;;;;;;;;;;24.20;67.20;;;;;;5023328;28;20281;-71
2023/09/16 14:27:42;;;;;;;;;;;24.20;67.10;;;;;;5027098;28;19933;-72
2023/09/16 14:30:17;;;;;;;;;;;24.20;67.30;;;;;;5024178;28;20314;-71
2023/09/16 14:32:45;;;;;;;;;;;24.20;67.30;;;;;;5024368;28;19929;-70
2023/09/16 14:35:18;;;;;;;;;;;24.10;66.80;;;;;;5022420;28;20373;-71
2023/09/16 14:37:52;;;;;;;;;;;24.00;66.90;;;;;;5024201;28;19925;-71
2023/09/16 14:40:25;;;;;;;;;;;24.00;67.00;;;;;;5023215;28;19959;-71
2023/09/16 14:42:59;;;;;;;;;;;24.00;67.10;;;;;;5021904;28;20380;-71
2023/09/16 14:45:26;;;;;;;;;;;24.00;67.20;;;;;;5022855;28;20391;-71
2023/09/16 14:48:00;;;;;;;;;;;24.00;67.50;;;;;;5022994;28;20847;-71
2023/09/16 14:50:34;;;;;;;;;;;24.00;67.30;;;;;;5021742;28;19932;-71
2023/09/16 14:53:07;;;;;;;;;;;23.90;67.10;;;;;;5023855;28;19975;-71
2023/09/16 14:55:40;;;;;;;;;;;23.80;67.20;;;;;;5022491;28;20019;-72